createdAt,value
2022-12-31T00:02:11.083Z,2.20
2022-12-31T00:04:37.620Z,3.63
2022-12-31T00:07:04.571Z,2.10
2022-12-31T00:09:30.996Z,2.50
2022-12-31T00:11:57.453Z,2.55
2022-12-31T00:14:23.903Z,2.38
2022-12-31T00:16:50.335Z,3.50
2022-12-31T00:19:16.824Z,1.58
2022-12-31T00:21:43.669Z,1.48
2022-12-31T00:24:11.260Z,1.60
2022-12-31T00:26:37.819Z,2.42
2022-12-31T00:29:05.305Z,2.65
2022-12-31T00:31:34.466Z,2.22
2022-12-31T00:34:01.599Z,1.95
2022-12-31T00:36:31.128Z,2.42
2022-12-31T00:38:59.802Z,1.63
2022-12-31T00:41:27.504Z,1.48
2022-12-31T00:43:54.602Z,1.73
2022-12-31T00:46:21.483Z,1.50
2022-12-31T00:48:48.364Z,1.58
2022-12-31T00:51:16.890Z,0.90
2022-12-31T00:53:43.373Z,1.15
2022-12-31T00:56:20.609Z,2.08
2022-12-31T00:58:47.659Z,1.13
2022-12-31T01:01:18.929Z,2.90
2022-12-31T01:03:46.964Z,0.95
2022-12-31T01:06:13.412Z,1.92
2022-12-31T01:08:40.265Z,1.30
2022-12-31T01:11:28.980Z,1.60
2022-12-31T01:14:02.786Z,1.83
2022-12-31T01:16:34.019Z,0.95
2022-12-31T01:19:03.826Z,1.40
2022-12-31T01:21:30.957Z,1.15
2022-12-31T01:23:58.572Z,1.77
2022-12-31T01:26:25.619Z,0.90
2022-12-31T01:28:52.046Z,3.47
2022-12-31T01:31:20.537Z,1.38
2022-12-31T01:33:47.452Z,0.98
2022-12-31T01:36:20.396Z,1.05
2022-12-31T01:38:52.060Z,1.10
2022-12-31T01:41:24.955Z,0.80
2022-12-31T01:43:57.390Z,0.93
2022-12-31T01:46:32.634Z,0.95
2022-12-31T01:49:25.228Z,1.10
2022-12-31T01:51:58.354Z,3.08
2022-12-31T01:54:27.223Z,2.75
2022-12-31T01:56:55.138Z,0.77
2022-12-31T01:59:24.550Z,0.93
2022-12-31T02:01:54.483Z,1.50
2022-12-31T02:04:23.978Z,1.35
2022-12-31T02:06:56.205Z,0.82
2022-12-31T02:09:22.682Z,0.98
2022-12-31T02:11:49.054Z,2.05
2022-12-31T02:14:22.836Z,1.00
2022-12-31T02:16:55.228Z,1.02
2022-12-31T02:19:42.510Z,2.58
2022-12-31T02:22:39.644Z,0.90
2022-12-31T02:25:33.334Z,1.27
2022-12-31T02:28:11.535Z,2.75
2022-12-31T02:30:42.156Z,0.82
2022-12-31T02:33:20.128Z,1.17
2022-12-31T02:35:55.653Z,1.38
2022-12-31T02:38:35.727Z,1.10
2022-12-31T02:41:02.217Z,2.30
2022-12-31T02:43:28.892Z,2.25
2022-12-31T02:46:49.173Z,0.77
2022-12-31T02:49:40.493Z,1.38
2022-12-31T02:52:20.256Z,2.13
2022-12-31T02:54:56.889Z,0.93
2022-12-31T02:57:35.422Z,1.42
2022-12-31T03:00:24.518Z,0.90
2022-12-31T03:02:53.233Z,1.23
2022-12-31T03:05:24.200Z,1.10
2022-12-31T03:07:51.018Z,3.50
2022-12-31T03:10:17.555Z,0.95
2022-12-31T03:12:47.562Z,0.80
2022-12-31T03:15:20.507Z,0.93
2022-12-31T03:18:04.776Z,1.00
2022-12-31T03:20:56.103Z,1.05
2022-12-31T03:23:50.074Z,0.80
2022-12-31T03:26:16.504Z,3.05
2022-12-31T03:28:47.611Z,1.48
2022-12-31T03:31:14.303Z,2.58
2022-12-31T03:33:42.078Z,1.00
2022-12-31T03:36:11.710Z,0.80
2022-12-31T03:38:38.171Z,2.25
2022-12-31T03:41:05.091Z,1.00
2022-12-31T03:43:31.466Z,0.85
2022-12-31T03:46:01.492Z,2.42
2022-12-31T03:48:28.098Z,2.03
2022-12-31T03:50:54.725Z,0.80
2022-12-31T03:53:21.431Z,0.93
2022-12-31T03:55:55.148Z,0.60
2022-12-31T03:58:22.007Z,0.60
2022-12-31T04:00:49.241Z,2.78
2022-12-31T04:03:15.829Z,1.05
2022-12-31T04:05:42.345Z,1.30
2022-12-31T04:08:08.750Z,17.70
2022-12-31T04:10:35.178Z,0.80
2022-12-31T04:13:04.392Z,1.95
2022-12-31T04:15:30.869Z,2.60
2022-12-31T04:17:57.284Z,1.60
2022-12-31T04:20:23.670Z,1.75
2022-12-31T04:22:50.052Z,3.03
2022-12-31T04:25:16.478Z,1.13
2022-12-31T04:27:46.189Z,2.47
2022-12-31T04:30:13.483Z,0.98
2022-12-31T04:32:40.310Z,2.10
2022-12-31T04:35:07.583Z,1.10
2022-12-31T04:37:33.973Z,1.00
2022-12-31T04:40:05.546Z,3.55
2022-12-31T04:42:32.983Z,1.90
2022-12-31T04:44:59.364Z,1.50
2022-12-31T04:47:25.821Z,1.48
2022-12-31T04:49:52.187Z,1.90
2022-12-31T04:52:18.603Z,1.15
2022-12-31T04:54:45.135Z,1.20
2022-12-31T04:57:11.546Z,1.00
2022-12-31T04:59:37.922Z,1.30
2022-12-31T05:02:04.590Z,2.42
2022-12-31T05:04:31.412Z,1.08
2022-12-31T05:06:57.806Z,1.20
2022-12-31T05:09:27.414Z,2.22
2022-12-31T05:11:54.025Z,2.65
2022-12-31T05:14:20.496Z,1.00
2022-12-31T05:16:47.002Z,1.23
2022-12-31T05:19:13.459Z,0.90
2022-12-31T05:21:39.956Z,0.90
2022-12-31T05:24:06.803Z,1.15
2022-12-31T05:26:33.210Z,0.93
2022-12-31T05:29:00.499Z,1.13
2022-12-31T05:31:27.212Z,0.82
2022-12-31T05:33:53.660Z,1.23
2022-12-31T05:36:20.043Z,1.15
2022-12-31T05:38:46.451Z,1.70
2022-12-31T05:41:12.852Z,0.85
2022-12-31T05:43:39.284Z,1.13
2022-12-31T05:46:06.156Z,1.05
2022-12-31T05:48:32.732Z,0.95
2022-12-31T05:50:59.290Z,1.00
2022-12-31T05:53:25.762Z,0.88
2022-12-31T05:55:52.198Z,1.17
2022-12-31T05:58:18.698Z,0.63
2022-12-31T06:00:46.021Z,0.98
2022-12-31T06:03:12.964Z,1.38
2022-12-31T06:05:41.553Z,2.03
2022-12-31T06:08:08.077Z,1.38
2022-12-31T06:10:34.459Z,0.70
2022-12-31T06:13:01.327Z,4.25
2022-12-31T06:15:27.769Z,0.90
2022-12-31T06:17:54.151Z,1.60
2022-12-31T06:20:20.539Z,0.85
2022-12-31T06:22:46.931Z,1.75
2022-12-31T06:25:13.404Z,1.05
2022-12-31T06:27:39.800Z,0.90
2022-12-31T06:30:07.246Z,1.58
2022-12-31T06:32:34.858Z,0.82
2022-12-31T06:35:01.269Z,0.80
2022-12-31T06:37:27.710Z,0.88
2022-12-31T06:39:54.107Z,0.70
2022-12-31T06:42:20.536Z,0.80
2022-12-31T06:44:46.953Z,1.30
2022-12-31T06:47:13.359Z,0.63
2022-12-31T06:49:40.763Z,1.60
2022-12-31T06:52:07.255Z,0.80
2022-12-31T06:54:33.906Z,1.60
2022-12-31T06:57:00.446Z,1.35
2022-12-31T06:59:28.830Z,1.42
2022-12-31T07:02:15.683Z,0.75
2022-12-31T07:05:06.868Z,0.43
2022-12-31T07:07:48.146Z,1.50
2022-12-31T07:10:29.399Z,0.88
2022-12-31T07:15:48.519Z,0.70
2022-12-31T07:18:24.130Z,0.90
2022-12-31T07:20:50.935Z,4.97
2022-12-31T07:23:17.894Z,1.15
2022-12-31T07:25:54.065Z,0.63
2022-12-31T07:28:36.687Z,1.05
2022-12-31T07:31:11.768Z,1.10
2022-12-31T07:33:58.940Z,0.75
2022-12-31T07:36:57.195Z,1.25
2022-12-31T07:39:38.993Z,0.88
2022-12-31T07:42:16.348Z,0.90
2022-12-31T07:45:00.924Z,1.00
2022-12-31T07:47:28.246Z,1.30
2022-12-31T07:49:55.818Z,1.00
2022-12-31T07:52:22.788Z,1.85
2022-12-31T07:54:49.476Z,1.10
2022-12-31T07:57:18.798Z,1.23
2022-12-31T08:00:06.935Z,3.50
2022-12-31T08:02:58.944Z,1.08
2022-12-31T08:08:36.380Z,1.05
2022-12-31T08:11:08.971Z,2.80
2022-12-31T08:13:35.857Z,2.15
2022-12-31T08:16:02.803Z,2.05
2022-12-31T08:18:29.628Z,2.63
2022-12-31T08:21:04.915Z,2.47
2022-12-31T08:23:56.345Z,2.10
2022-12-31T08:27:04.271Z,2.55
2022-12-31T08:29:40.619Z,5.05
2022-12-31T08:32:22.715Z,4.03
2022-12-31T08:35:06.359Z,11.38
2022-12-31T08:38:02.487Z,8.75
2022-12-31T08:40:47.853Z,8.82
2022-12-31T08:43:24.675Z,6.40
2022-12-31T08:45:53.404Z,6.25
2022-12-31T08:48:26.755Z,5.07
2022-12-31T08:50:54.380Z,6.95
2022-12-31T08:53:21.201Z,4.50
2022-12-31T08:55:52.660Z,5.45
2022-12-31T08:58:24.917Z,2.92
2022-12-31T09:00:57.631Z,2.83
2022-12-31T09:03:33.401Z,2.33
2022-12-31T09:06:09.883Z,1.83
2022-12-31T09:08:39.301Z,2.90
2022-12-31T09:11:30.430Z,1.80
2022-12-31T09:14:35.618Z,2.17
2022-12-31T09:17:25.270Z,2.35
2022-12-31T09:19:52.194Z,2.20
2022-12-31T09:22:19.044Z,2.30
2022-12-31T09:24:45.654Z,2.63
2022-12-31T09:27:36.341Z,2.20
2022-12-31T09:30:11.240Z,2.20
2022-12-31T09:32:47.932Z,2.45
2022-12-31T09:35:46.671Z,4.78
2022-12-31T09:38:22.650Z,2.30
2022-12-31T09:41:14.963Z,2.40
2022-12-31T09:44:10.000Z,3.47
2022-12-31T09:47:14.024Z,2.70
2022-12-31T09:49:40.417Z,3.50
2022-12-31T09:52:37.135Z,3.30
2022-12-31T09:55:37.977Z,3.28
2022-12-31T09:58:16.688Z,2.83
2022-12-31T10:00:56.258Z,5.00
2022-12-31T10:03:40.039Z,2.60
2022-12-31T10:06:21.750Z,2.70
2022-12-31T10:08:56.697Z,2.40
2022-12-31T10:11:38.251Z,2.28
2022-12-31T10:14:07.577Z,2.40
2022-12-31T10:16:57.993Z,2.40
2022-12-31T10:19:51.599Z,2.55
2022-12-31T10:22:31.943Z,3.30
2022-12-31T10:25:38.401Z,1.75
2022-12-31T10:28:29.575Z,1.60
2022-12-31T10:31:05.962Z,1.92
2022-12-31T10:33:45.645Z,1.55
2022-12-31T10:36:19.828Z,1.50
2022-12-31T10:38:58.474Z,2.03
2022-12-31T10:41:40.112Z,1.95
2022-12-31T10:44:34.299Z,2.15
2022-12-31T10:47:51.263Z,3.22
2022-12-31T10:50:39.300Z,1.88
2022-12-31T10:53:40.065Z,0.90
2022-12-31T10:56:28.070Z,2.65
2022-12-31T10:59:00.421Z,4.05
2022-12-31T11:01:49.761Z,2.97
2022-12-31T11:04:45.378Z,2.97
2022-12-31T11:07:27.407Z,1.92
2022-12-31T11:10:21.246Z,1.23
2022-12-31T11:12:59.953Z,1.00
2022-12-31T11:15:55.908Z,1.02
2022-12-31T11:18:36.212Z,1.80
2022-12-31T11:21:24.588Z,1.45
2022-12-31T11:24:05.978Z,2.55
2022-12-31T11:27:06.386Z,1.35
2022-12-31T11:30:03.728Z,1.73
2022-12-31T11:32:45.104Z,1.33
2022-12-31T11:35:31.729Z,2.00
2022-12-31T11:38:07.083Z,1.17
2022-12-31T11:40:33.570Z,3.25
2022-12-31T11:43:36.066Z,3.25
2022-12-31T11:46:39.583Z,2.20
2022-12-31T11:50:10.587Z,1.88
2022-12-31T11:52:51.969Z,4.22
2022-12-31T11:55:21.242Z,1.58
2022-12-31T11:57:52.098Z,2.50
2022-12-31T12:00:24.617Z,1.30
2022-12-31T12:02:55.297Z,0.98
2022-12-31T12:05:23.927Z,3.53
2022-12-31T12:07:51.991Z,2.45
2022-12-31T12:10:29.104Z,2.15
2022-12-31T12:13:00.187Z,2.35
2022-12-31T12:15:31.355Z,1.73
2022-12-31T12:18:01.554Z,3.80
2022-12-31T12:20:31.948Z,1.58
2022-12-31T12:23:01.966Z,2.30
2022-12-31T12:25:39.300Z,5.07
2022-12-31T12:28:44.359Z,3.15
2022-12-31T12:31:20.087Z,6.28
2022-12-31T12:33:47.862Z,3.33
2022-12-31T12:36:16.908Z,1.40
2022-12-31T12:38:44.002Z,4.50
2022-12-31T12:41:18.324Z,1.65
2022-12-31T12:43:45.203Z,1.70
2022-12-31T12:46:27.668Z,1.70
2022-12-31T12:48:56.782Z,2.70
2022-12-31T12:54:29.593Z,2.55
2022-12-31T12:57:24.007Z,2.78
2022-12-31T13:00:01.794Z,1.45
2022-12-31T13:02:36.616Z,1.98
2022-12-31T13:05:28.952Z,1.40
2022-12-31T13:08:37.590Z,2.40
2022-12-31T13:11:29.043Z,2.38
2022-12-31T13:14:17.201Z,1.50
2022-12-31T13:16:48.252Z,1.73
2022-12-31T13:19:37.756Z,1.38
2022-12-31T13:22:44.619Z,0.70
2022-12-31T13:25:29.720Z,0.60
2022-12-31T13:28:00.155Z,0.70
2022-12-31T13:30:30.557Z,3.92
2022-12-31T13:33:18.207Z,0.60
2022-12-31T13:35:48.741Z,0.88
2022-12-31T13:38:22.698Z,1.00
2022-12-31T13:41:04.830Z,3.40
2022-12-31T13:43:34.236Z,1.50
2022-12-31T13:46:10.644Z,1.00
2022-12-31T13:48:44.769Z,0.80
2022-12-31T13:51:20.358Z,0.75
2022-12-31T13:54:13.548Z,1.25
2022-12-31T13:56:42.599Z,1.02
2022-12-31T13:59:29.688Z,2.22
2022-12-31T14:02:03.134Z,2.40
2022-12-31T14:04:53.227Z,3.08
2022-12-31T14:07:22.020Z,1.95
2022-12-31T14:09:49.050Z,1.85
2022-12-31T14:12:52.941Z,0.40
2022-12-31T14:15:34.452Z,0.47
2022-12-31T14:18:21.868Z,0.45
2022-12-31T14:20:58.326Z,1.05
2022-12-31T14:23:27.666Z,0.32
2022-12-31T14:26:00.885Z,0.77
2022-12-31T14:29:12.021Z,0.95
2022-12-31T14:31:53.654Z,2.47
2022-12-31T14:34:47.487Z,2.05
2022-12-31T14:37:23.879Z,1.00
2022-12-31T14:40:28.871Z,1.15
2022-12-31T14:43:07.483Z,2.95
2022-12-31T14:45:52.096Z,1.45
2022-12-31T14:48:36.851Z,3.17
2022-12-31T14:51:05.100Z,8.25
2022-12-31T14:53:31.704Z,5.35
2022-12-31T14:56:27.721Z,6.63
2022-12-31T14:58:59.702Z,10.15
2022-12-31T15:01:26.398Z,3.90
2022-12-31T15:03:57.279Z,4.75
2022-12-31T15:06:23.779Z,1.87
2022-12-31T15:09:15.369Z,2.97
2022-12-31T15:12:21.974Z,2.20
2022-12-31T15:14:54.604Z,3.88
2022-12-31T15:17:29.030Z,5.00
2022-12-31T15:20:17.872Z,4.22
2022-12-31T15:22:52.131Z,9.15
2022-12-31T15:25:32.605Z,5.88
2022-12-31T15:28:05.357Z,6.47
2022-12-31T15:30:36.581Z,3.45
2022-12-31T15:33:07.787Z,4.05
2022-12-31T15:35:52.957Z,3.78
2022-12-31T15:38:32.983Z,2.38
2022-12-31T15:41:00.378Z,2.97
2022-12-31T15:43:29.834Z,1.90
2022-12-31T15:45:57.652Z,6.97
2022-12-31T15:48:36.189Z,4.65
2022-12-31T15:51:04.680Z,4.53
2022-12-31T15:53:53.663Z,6.82
2022-12-31T15:56:31.242Z,4.45
2022-12-31T15:59:01.539Z,4.72
2022-12-31T16:01:35.137Z,2.38
2022-12-31T16:04:12.560Z,6.78
2022-12-31T16:06:39.185Z,7.45
2022-12-31T16:09:18.516Z,4.45
2022-12-31T16:11:45.408Z,4.07
2022-12-31T16:14:22.193Z,4.05
2022-12-31T16:17:00.394Z,4.00
2022-12-31T16:19:42.430Z,6.22
2022-12-31T16:22:25.253Z,5.53
2022-12-31T16:25:38.864Z,4.32
2022-12-31T16:27:43.287Z,3.90
2022-12-31T16:30:21.209Z,3.25
2022-12-31T16:32:49.505Z,36.85
2022-12-31T16:35:29.862Z,11.27
2022-12-31T16:38:17.576Z,6.45
2022-12-31T16:41:03.604Z,24.73
2022-12-31T16:43:36.547Z,7.90
2022-12-31T16:46:25.507Z,11.10
2022-12-31T16:48:55.938Z,12.02
2022-12-31T16:51:25.954Z,7.55
2022-12-31T16:53:53.555Z,3.75
2022-12-31T16:56:26.340Z,9.10
2022-12-31T16:59:01.346Z,10.95
2022-12-31T17:01:32.175Z,9.75
2022-12-31T17:04:03.701Z,6.30
2022-12-31T17:06:33.336Z,8.90
2022-12-31T17:09:20.939Z,4.38
2022-12-31T17:11:52.490Z,5.65
2022-12-31T17:14:23.118Z,3.55
2022-12-31T17:17:03.170Z,2.88
2022-12-31T17:19:45.853Z,2.85
2022-12-31T17:22:32.849Z,3.50
2022-12-31T17:25:27.053Z,13.48
2022-12-31T17:28:02.163Z,14.23
2022-12-31T17:30:32.590Z,12.95
2022-12-31T17:33:27.063Z,11.18
2022-12-31T17:36:13.545Z,5.15
2022-12-31T17:38:40.032Z,4.32
2022-12-31T17:41:06.392Z,6.13
2022-12-31T17:43:37.977Z,25.48
2022-12-31T17:46:15.936Z,16.00
2022-12-31T17:48:45.019Z,12.85
2022-12-31T17:51:12.088Z,6.68
2022-12-31T17:53:38.497Z,3.95
2022-12-31T17:56:07.466Z,4.30
2022-12-31T17:58:44.784Z,3.97
2022-12-31T18:01:15.540Z,2.05
2022-12-31T18:03:42.020Z,6.17
2022-12-31T18:06:16.625Z,13.57
2022-12-31T18:08:43.595Z,9.85
2022-12-31T18:11:22.772Z,13.98
2022-12-31T18:13:49.534Z,11.05
2022-12-31T18:16:16.331Z,4.53
2022-12-31T18:18:43.674Z,3.85
2022-12-31T18:21:17.898Z,8.68
2022-12-31T18:23:46.490Z,5.40
2022-12-31T18:26:18.373Z,2.53
2022-12-31T18:28:45.545Z,3.08
2022-12-31T18:31:19.095Z,2.88
2022-12-31T18:33:47.019Z,6.68
2022-12-31T18:36:15.616Z,7.25
2022-12-31T18:38:42.492Z,3.78
2022-12-31T18:41:17.537Z,6.35
2022-12-31T18:43:44.224Z,5.22
2022-12-31T18:46:13.390Z,4.75
2022-12-31T18:48:41.410Z,5.80
2022-12-31T18:51:16.840Z,3.45
2022-12-31T18:53:43.492Z,8.63
2022-12-31T18:56:12.843Z,4.72
2022-12-31T18:58:39.523Z,4.78
2022-12-31T19:01:14.966Z,5.93
2022-12-31T19:03:41.509Z,8.10
2022-12-31T19:06:08.861Z,8.70
2022-12-31T19:08:35.260Z,7.30
2022-12-31T19:11:01.672Z,8.55
2022-12-31T19:13:28.051Z,3.83
2022-12-31T19:15:55.456Z,5.35
2022-12-31T19:18:21.846Z,7.30
2022-12-31T19:20:48.323Z,24.38
2022-12-31T19:23:20.591Z,10.45
2022-12-31T19:25:48.910Z,7.50
2022-12-31T19:28:21.404Z,77.60
2022-12-31T19:30:48.405Z,64.28
2022-12-31T19:33:15.914Z,137.10
2022-12-31T19:35:42.744Z,18.40
2022-12-31T19:38:18.773Z,9.32
2022-12-31T19:40:46.470Z,7.05
2022-12-31T19:43:14.507Z,11.45
2022-12-31T19:45:42.590Z,5.28
2022-12-31T19:48:14.331Z,3.88
2022-12-31T19:50:52.222Z,4.35
2022-12-31T19:53:22.238Z,6.05
2022-12-31T19:55:49.345Z,5.20
2022-12-31T19:58:21.444Z,5.18
2022-12-31T20:00:55.696Z,8.70
2022-12-31T20:03:23.756Z,2.95
2022-12-31T20:05:50.234Z,9.43
2022-12-31T20:08:17.016Z,6.78
2022-12-31T20:10:43.926Z,6.65
2022-12-31T20:13:10.626Z,21.80
2022-12-31T20:15:41.284Z,7.45
2022-12-31T20:18:07.699Z,5.60
2022-12-31T20:20:34.191Z,4.47
2022-12-31T20:23:00.638Z,10.15
2022-12-31T20:25:27.077Z,3.78
2022-12-31T20:27:54.947Z,3.47
2022-12-31T20:30:22.951Z,2.78
2022-12-31T20:32:52.019Z,5.78
2022-12-31T20:35:19.430Z,6.03
2022-12-31T20:37:46.135Z,5.53
2022-12-31T20:40:14.248Z,4.55
2022-12-31T20:42:41.266Z,5.55
2022-12-31T20:45:09.408Z,7.03
2022-12-31T20:47:36.010Z,3.53
2022-12-31T20:50:11.976Z,6.57
2022-12-31T20:52:38.789Z,4.97
2022-12-31T20:55:05.743Z,2.92
2022-12-31T20:57:33.984Z,5.28
2022-12-31T21:00:00.987Z,3.67
2022-12-31T21:02:40.792Z,4.95
2022-12-31T21:05:09.363Z,4.55
2022-12-31T21:07:35.868Z,5.22
2022-12-31T21:10:02.258Z,8.77
2022-12-31T21:12:43.792Z,61.35
2022-12-31T21:15:12.267Z,47.42
2022-12-31T21:17:38.700Z,8.82
2022-12-31T21:20:05.691Z,3.97
2022-12-31T21:22:33.659Z,5.28
2022-12-31T21:25:04.059Z,6.28
2022-12-31T21:27:30.730Z,6.63
2022-12-31T21:32:43.615Z,9.05
2022-12-31T21:38:04.433Z,5.53
2022-12-31T21:40:32.007Z,7.28
2022-12-31T21:42:58.759Z,4.43
2022-12-31T21:45:25.526Z,5.60
2022-12-31T21:48:10.588Z,3.78
2022-12-31T21:50:37.023Z,5.25
2022-12-31T21:53:03.482Z,3.83
2022-12-31T21:55:48.342Z,8.48
2022-12-31T21:58:25.866Z,7.25
2022-12-31T22:01:12.577Z,5.93
2022-12-31T22:03:39.222Z,5.60
2022-12-31T22:06:12.331Z,6.85
2022-12-31T22:08:40.642Z,3.58
2022-12-31T22:11:07.453Z,7.22
2022-12-31T22:13:34.476Z,3.47
2022-12-31T22:16:05.123Z,8.73
2022-12-31T22:18:34.912Z,4.93
2022-12-31T22:21:05.509Z,9.07
2022-12-31T22:23:33.480Z,5.88
2022-12-31T22:26:00.556Z,8.75
2022-12-31T22:28:38.097Z,4.75
2022-12-31T22:31:05.906Z,3.05
2022-12-31T22:33:32.375Z,3.53
2022-12-31T22:36:04.130Z,5.05
2022-12-31T22:41:14.041Z,7.95
2022-12-31T22:43:42.822Z,3.13
2022-12-31T22:46:11.753Z,5.72
2022-12-31T22:48:38.570Z,4.50
2022-12-31T22:51:05.867Z,5.60
2022-12-31T22:53:32.712Z,5.50
2022-12-31T22:55:59.454Z,8.32
2022-12-31T22:58:26.010Z,7.35
2022-12-31T23:00:52.791Z,7.10
2022-12-31T23:03:19.429Z,7.40
2022-12-31T23:05:49.724Z,18.35
2022-12-31T23:08:22.724Z,284.25
2022-12-31T23:11:01.306Z,83.63
2022-12-31T23:13:50.979Z,146.82
2022-12-31T23:16:37.597Z,164.90
2022-12-31T23:19:23.626Z,213.60
2022-12-31T23:22:08.436Z,89.88
2022-12-31T23:24:35.034Z,56.17
2022-12-31T23:27:01.515Z,27.50
2022-12-31T23:29:27.997Z,20.83
2022-12-31T23:31:54.483Z,25.08
2022-12-31T23:34:21.273Z,19.25
2022-12-31T23:36:47.913Z,30.17
2022-12-31T23:39:14.477Z,10.65
2022-12-31T23:41:40.909Z,8.15
2022-12-31T23:44:07.418Z,12.95
2022-12-31T23:46:33.867Z,10.10
2022-12-31T23:49:00.404Z,11.48
2022-12-31T23:51:26.903Z,9.20
2022-12-31T23:53:53.578Z,9.60
2022-12-31T23:56:23.557Z,10.18
2022-12-31T23:58:56.686Z,9.55
